Airfield :
LOGIN :

Register | Disclaimer

   EN    FR    IT 

 










Legend :    VFR   Marginal VFR   IFR   Intensive IFR   Very Intensive IFR
Visi :
Ceiling :
>= 8 km
>= 3000ft
5 to 8 km
1000 to 3000 ft
1500m to 5 km
500 to 1000 ft
800 to 1500m
200 to 500 ft
< 800m
< 200 ft
Symbols :   Thunderstorms  Fog  Heavy snow  Heavy precipitations  Wind > 20 kt
SIGMETs :     Misc.  Thunderstorms  Icing  Turbulence  Mountain Waves  Volcanic Ashes







- Airport Elevation : 26 ft


ETNT - Wittmundhaven AB

CURRENT METAR :
  • 211920Z AUTO 11011KT 6000 // ////// 02/M01 Q1023 ///

EXPIRED METARs :
  • 211820Z 09010KT 9000 FEW019 BKN060 02/M01 Q1022 BLU
  • 211720Z 11011KT 9000 SCT019 BKN060 02/M01 Q1022 BLU FCST CANCEL
  • 211648Z 10009KT 9000 BKN015 02/M01 Q1022 WHT WHT TEMPO GRN

TAF AMD TAF ETNT
Valid from the 21 at 15:00 until the 22 at 00:00 UTC


211707Z 2115/2124 10010G20KT 9999 NSW BKN015
TEMPO 2115/2124 11012G22KT 8000 NSW BKN012 CANCEL BY ETGL
No reported NOTAMs for that airfield.



MET'MAP, your aeronautical weather chart ! - Copyright ORBIFLY December 2007 - Disclaimer

ORBIFLY MET'MAP TEAM :

Programming & Development : Alexandra Zaïnal
Concept & Development : Baudouin d'Aumeries
Co-Development & Prog : Marc-Olivier Méhu
Technical & hardware support : Manuel Goepfert

Contact : metmap@orbifly.com




SOURCES & CREDITS :

   NOAA